Time;durP1;ratioP1;P1;durP2;ratioP2;P2;SDS_P1;SDS_P2;PMS_P1;PMS_P2;Temp;Humidity;BMP_temperature;BMP_pressure;BME280_temperature;BME280_humidity;BME280_pressure;Samples;Min_cycle;Max_cycle;Signal;HPM_P1;HPM_P2
2023/08/16 03:47:56;;;;;;;;;;;;;;;;;;;;;
2023/08/16 04:54:23;;;;;;;;;;;;;;;;;;;;;
2023/08/16 05:27:18;;;;;;;14.30;9.13;;;21.20;99.90;;;;;;4752899;24;20651;-81
2023/08/16 05:29:46;;;;;;;14.07;9.40;;;21.30;99.90;;;;;;4706268;30;20207;-86
2023/08/16 05:32:14;;;;;;;15.17;9.77;;;21.40;99.90;;;;;;4721555;30;20206;-86
2023/08/16 05:34:41;;;;;;;14.67;9.83;;;21.40;99.90;;;;;;4706451;30;20203;-87
2023/08/16 05:37:09;;;;;;;19.00;11.20;;;21.50;99.90;;;;;;4705453;30;20239;-86
2023/08/16 05:39:37;;;;;;;14.17;10.03;;;21.60;99.90;;;;;;4721295;30;20250;-87
2023/08/16 05:42:08;;;;;;;17.63;11.07;;;21.70;99.90;;;;;;4691254;30;20299;-86
2023/08/16 05:44:35;;;;;;;21.83;11.00;;;21.70;99.90;;;;;;4720795;30;20610;-84
2023/08/16 05:47:03;;;;;;;20.27;11.63;;;21.80;99.90;;;;;;4704998;30;20662;-85
2023/08/16 05:49:33;;;;;;;16.63;11.40;;;21.90;99.90;;;;;;4705208;30;20207;-86
2023/08/16 05:52:00;;;;;;;21.23;12.03;;;21.90;99.90;;;;;;4690625;30;20203;-86
2023/08/16 05:54:28;;;;;;;16.57;11.50;;;22.00;99.90;;;;;;4705149;30;20281;-87
2023/08/16 05:56:55;;;;;;;18.50;11.10;;;22.00;99.90;;;;;;4720666;30;20302;-87
2023/08/16 05:59:25;;;;;;;17.53;10.50;;;22.10;99.90;;;;;;4704893;30;20237;-87
2023/08/16 06:01:52;;;;;;;17.10;9.93;;;22.10;99.90;;;;;;4691023;30;20211;-86
2023/08/16 06:04:20;;;;;;;15.63;9.50;;;22.20;99.90;;;;;;4690931;30;20238;-87
2023/08/16 06:06:49;;;;;;;14.27;9.30;;;22.20;99.90;;;;;;4720742;30;20199;-87
2023/08/16 06:09:19;;;;;;;13.63;9.30;;;22.30;99.90;;;;;;4720852;30;20217;-87
2023/08/16 06:11:48;;;;;;;15.43;9.73;;;22.30;99.90;;;;;;4721194;30;20187;-87
2023/08/16 06:14:15;;;;;;;16.57;9.87;;;22.40;99.90;;;;;;4705050;30;20599;-87
2023/08/16 06:16:42;;;;;;;12.90;9.70;;;22.50;99.90;;;;;;4705444;30;20203;-87
2023/08/16 06:19:10;;;;;;;14.97;9.27;;;22.60;99.90;;;;;;4720464;30;20214;-87
2023/08/16 06:21:37;;;;;;;15.40;9.03;;;22.70;99.90;;;;;;4704580;30;20627;-87
2023/08/16 06:24:05;;;;;;;13.03;8.77;;;22.70;99.90;;;;;;4690925;30;20507;-88
2023/08/16 06:26:33;;;;;;;12.87;9.13;;;22.80;99.90;;;;;;4706345;30;20254;-87
2023/08/16 06:29:01;;;;;;;19.55;8.65;;;23.00;99.90;;;;;;4721192;30;20293;-88
2023/08/16 06:31:29;;;;;;;15.73;9.20;;;23.10;99.90;;;;;;4720612;30;20234;-87
2023/08/16 06:33:56;;;;;;;16.30;8.50;;;23.30;99.90;;;;;;4705734;30;20215;-88
2023/08/16 06:36:24;;;;;;;13.65;8.70;;;23.50;99.90;;;;;;4705074;30;20265;-88
2023/08/16 06:38:53;;;;;;;12.57;8.60;;;23.60;99.90;;;;;;4720739;30;20223;-87
2023/08/16 06:41:20;;;;;;;16.10;8.77;;;23.70;99.90;;;;;;4690495;30;20305;-85
2023/08/16 06:43:48;;;;;;;18.90;8.55;;;23.70;99.90;;;;;;4704866;30;20215;-87
2023/08/16 06:46:16;;;;;;;14.25;9.02;;;23.80;99.90;;;;;;4720804;30;20237;-89
2023/08/16 06:48:44;;;;;;;15.05;8.90;;;24.00;99.90;;;;;;4720865;30;20301;-89
2023/08/16 06:51:11;;;;;;;14.60;9.10;;;24.00;99.90;;;;;;4705944;30;20438;-88
2023/08/16 06:53:40;;;;;;;13.30;8.80;;;24.20;99.90;;;;;;4691173;30;20279;-89
2023/08/16 06:56:07;;;;;;;14.80;9.68;;;24.30;99.90;;;;;;4705395;30;20297;-89
2023/08/16 06:58:35;;;;;;;17.08;8.77;;;24.40;99.90;;;;;;4705926;30;20305;-89
2023/08/16 07:01:02;;;;;;;13.05;9.07;;;24.50;99.90;;;;;;4691259;30;20227;-90
2023/08/16 13:25:39;;;;;;;5.47;4.53;;;40.10;58.70;;;;;;4900654;24;20517;-92
2023/08/16 13:28:41;;;;;;;6.10;4.90;;;39.10;60.90;;;;;;4642566;30;20206;-84
2023/08/16 13:31:21;;;;;;;12.68;6.30;;;38.60;62.70;;;;;;4645345;30;20905;-84
2023/08/16 13:34:13;;;;;;;6.90;5.60;;;38.00;69.10;;;;;;4645893;30;20257;-81
2023/08/16 13:41:13;;;;;;;7.90;5.55;;;36.80;79.80;;;;;;4608730;31;20219;-84
2023/08/16 15:40:15;;;;;;;9.18;5.43;;;36.50;77.20;;;;;;6059040;23;20230;-86
2023/08/16 15:54:37;;;;;;;6.95;5.50;;;35.30;75.50;;;;;;6210017;23;20203;-87
2023/08/16 15:58:40;;;;;;;6.53;4.97;;;34.70;75.60;;;;;;6001104;23;20218;-86
2023/08/16 16:05:42;;;;;;;7.13;5.28;;;33.70;77.20;;;;;;5801810;24;20351;-85
2023/08/16 16:08:49;;;;;;;8.02;5.78;;;33.70;79.10;;;;;;5790586;24;20204;-84
2023/08/16 16:16:21;;;;;;;11.15;6.53;;;33.60;82.80;;;;;;5534779;25;20191;-82
2023/08/16 16:19:26;;;;;;;9.65;6.13;;;33.70;86.00;;;;;;5516011;25;20176;-85
2023/08/16 16:40:29;;;;;;;10.50;6.47;;;33.00;86.80;;;;;;4955632;28;20261;-85
2023/08/16 16:46:59;;;;;;;9.13;6.50;;;32.60;88.00;;;;;;4894348;29;20205;-85
2023/08/16 16:49:37;;;;;;;8.93;6.60;;;32.40;88.30;;;;;;4913905;29;20178;-84
2023/08/16 16:52:06;;;;;;;10.45;6.63;;;32.30;87.20;;;;;;4913866;29;20285;-83
2023/08/16 16:54:32;;;;;;;12.80;6.85;;;32.00;89.80;;;;;;4913171;29;20575;-83
2023/08/16 16:57:04;;;;;;;10.63;7.15;;;31.90;86.70;;;;;;4913081;29;20610;-83
2023/08/16 16:59:31;;;;;;;9.18;6.70;;;31.80;90.40;;;;;;4897839;29;20175;-83
2023/08/16 17:01:59;;;;;;;8.85;6.57;;;31.60;90.20;;;;;;4913384;29;20253;-82
2023/08/16 17:04:32;;;;;;;12.40;6.72;;;31.50;91.20;;;;;;4913078;29;20319;-84
2023/08/16 17:07:03;;;;;;;11.68;6.80;;;31.50;89.70;;;;;;5118875;22;20251;-82
2023/08/16 17:09:46;;;;;;;10.05;6.32;;;31.40;88.80;;;;;;5053277;28;20197;-82
2023/08/16 17:12:28;;;;;;;12.38;7.07;;;31.30;88.40;;;;;;5055038;28;20197;-83
2023/08/16 17:15:57;;;;;;;8.25;6.47;;;31.20;91.90;;;;;;5069303;28;20262;-83
2023/08/16 17:18:56;;;;;;;10.60;6.90;;;31.10;91.40;;;;;;5048380;28;20216;-82
2023/08/16 17:21:38;;;;;;;9.65;6.93;;;30.90;90.20;;;;;;5053335;28;20221;-87
2023/08/16 17:24:13;;;;;;;19.92;7.53;;;30.80;91.00;;;;;;5086503;28;20213;-88
2023/08/16 17:26:54;;;;;;;13.60;7.45;;;30.70;91.10;;;;;;5055237;28;20189;-82
2023/08/16 17:29:22;;;;;;;18.67;8.57;;;30.70;91.80;;;;;;5069725;28;20279;-82
2023/08/16 17:31:51;;;;;;;10.88;7.88;;;30.50;91.30;;;;;;5049415;28;20202;-86
2023/08/16 17:34:24;;;;;;;17.25;9.27;;;30.40;92.10;;;;;;5057139;28;20190;-86
2023/08/16 17:37:20;;;;;;;11.05;7.93;;;30.30;92.70;;;;;;5060115;28;20247;-82
2023/08/16 17:40:07;;;;;;;11.43;7.30;;;30.10;93.20;;;;;;5054343;28;20206;-80
2023/08/16 17:42:47;;;;;;;10.23;7.13;;;30.00;92.40;;;;;;5055183;28;20202;-85
2023/08/16 17:45:20;;;;;;;14.63;7.60;;;29.90;93.10;;;;;;5040556;28;20197;-82
2023/08/16 17:47:51;;;;;;;13.05;8.10;;;29.80;92.80;;;;;;5038891;28;20692;-81
2023/08/16 17:53:54;;;;;;;13.73;8.07;;;29.70;93.60;;;;;;5407469;22;20678;-83
2023/08/16 17:56:38;;;;;;;10.20;7.35;;;29.50;94.30;;;;;;5076212;28;20239;-84
2023/08/16 17:59:10;;;;;;;11.77;7.90;;;29.50;94.90;;;;;;5074971;28;20186;-84
2023/08/16 18:01:37;;;;;;;12.73;7.78;;;29.30;94.40;;;;;;5076320;28;20260;-83
2023/08/16 18:04:12;;;;;;;10.98;7.72;;;29.40;94.60;;;;;;5059990;28;20197;-83
2023/08/16 18:06:46;;;;;;;10.55;7.55;;;29.30;93.90;;;;;;5076092;28;20218;-84
2023/08/16 18:09:35;;;;;;;11.77;7.97;;;29.40;93.70;;;;;;5076291;28;20193;-83
2023/08/16 18:12:05;;;;;;;9.38;7.40;;;29.30;94.80;;;;;;5076272;28;20204;-84
2023/08/16 18:14:35;;;;;;;9.40;7.55;;;29.20;95.00;;;;;;5060121;28;20197;-83
2023/08/16 18:17:04;;;;;;;10.40;7.25;;;29.00;95.10;;;;;;5094041;28;20219;-84
2023/08/16 18:19:45;;;;;;;9.65;7.55;;;28.90;94.10;;;;;;5075318;28;20296;-84
2023/08/16 18:22:35;;;;;;;13.43;7.90;;;29.00;94.10;;;;;;5061274;28;20311;-83
2023/08/16 18:25:06;;;;;;;13.10;7.95;;;28.90;95.30;;;;;;5076013;28;20197;-82
2023/08/16 18:27:43;;;;;;;11.05;7.50;;;28.90;95.40;;;;;;5051081;28;20213;-84
2023/08/16 18:30:15;;;;;;;10.30;7.65;;;28.80;94.60;;;;;;5051482;28;20286;-84
2023/08/16 18:32:48;;;;;;;10.98;7.88;;;28.80;94.90;;;;;;5019200;28;20234;-82
2023/08/16 18:35:16;;;;;;;11.57;7.32;;;28.70;95.90;;;;;;5034677;28;20666;-83
2023/08/16 18:37:53;;;;;;;11.15;7.40;;;28.60;95.20;;;;;;5034498;28;20268;-84
2023/08/16 18:40:21;;;;;;;10.60;7.90;;;28.60;94.90;;;;;;5051069;28;20202;-83
2023/08/16 18:42:50;;;;;;;12.93;8.70;;;28.60;95.40;;;;;;5034976;28;20719;-84
2023/08/16 18:45:23;;;;;;;10.00;7.78;;;28.50;95.70;;;;;;5048093;28;20197;-83
2023/08/16 18:47:51;;;;;;;13.30;7.65;;;28.40;95.00;;;;;;5075276;28;20201;-83
2023/08/16 18:50:22;;;;;;;13.02;7.80;;;28.40;95.90;;;;;;5074822;28;20667;-84
2023/08/16 18:52:50;;;;;;;15.68;8.60;;;28.40;95.90;;;;;;5058299;28;20323;-84
2023/08/16 18:55:17;;;;;;;12.63;8.25;;;28.30;95.60;;;;;;5075334;28;20205;-81
2023/08/16 18:57:45;;;;;;;11.10;7.75;;;28.30;95.90;;;;;;5074634;28;20363;-83
2023/08/16 19:00:14;;;;;;;11.57;8.13;;;28.20;96.10;;;;;;5075046;28;20202;-83
2023/08/16 19:02:41;;;;;;;11.32;8.10;;;28.20;96.50;;;;;;5075433;28;20201;-82
2023/08/16 19:05:22;;;;;;;10.50;8.50;;;28.10;96.10;;;;;;5091396;28;20292;-83
2023/08/16 19:07:52;;;;;;;10.95;7.82;;;28.10;97.20;;;;;;5092911;28;20263;-83
2023/08/16 19:10:23;;;;;;;13.75;7.95;;;28.00;96.40;;;;;;5074475;28;20225;-83
2023/08/16 19:12:51;;;;;;;12.13;8.07;;;28.00;96.50;;;;;;5058166;28;20193;-85
2023/08/16 19:15:21;;;;;;;16.23;8.48;;;27.90;97.00;;;;;;5075042;28;20208;-84
2023/08/16 19:17:54;;;;;;;12.63;8.20;;;27.90;97.60;;;;;;5074791;28;20561;-85
2023/08/16 19:20:26;;;;;;;12.90;7.75;;;27.90;97.70;;;;;;5093029;28;20199;-84
2023/08/16 19:23:11;;;;;;;12.88;8.45;;;27.80;97.50;;;;;;5092944;28;20205;-85
2023/08/16 19:25:45;;;;;;;10.45;7.65;;;27.70;97.60;;;;;;5033414;28;20198;-84
2023/08/16 19:28:21;;;;;;;10.75;8.27;;;27.70;97.70;;;;;;5032889;28;20199;-84
2023/08/16 19:31:01;;;;;;;15.20;8.70;;;27.70;97.60;;;;;;5033091;28;20272;-84
2023/08/16 19:33:48;;;;;;;13.55;8.20;;;27.60;98.30;;;;;;5049902;28;20681;-83
2023/08/16 19:36:22;;;;;;;16.38;8.88;;;27.50;97.70;;;;;;5049793;28;20550;-84
2023/08/16 19:39:12;;;;;;;10.98;8.23;;;27.50;98.90;;;;;;5049742;28;20214;-84
2023/08/16 19:41:48;;;;;;;12.25;8.82;;;27.50;98.00;;;;;;4985865;28;20321;-81
2023/08/16 19:44:34;;;;;;;13.07;8.77;;;27.50;99.00;;;;;;5080631;28;20194;-84
2023/08/16 19:47:01;;;;;;;12.32;8.20;;;27.40;98.80;;;;;;5074194;28;20201;-82
2023/08/16 19:49:32;;;;;;;12.45;8.23;;;27.40;98.50;;;;;;5074140;28;20201;-83
2023/08/16 19:52:03;;;;;;;12.50;8.77;;;27.40;98.80;;;;;;5074346;28;20217;-82
2023/08/16 19:54:51;;;;;;;14.10;8.45;;;27.40;98.50;;;;;;5073598;28;20208;-83
2023/08/16 19:57:24;;;;;;;11.50;8.40;;;27.40;98.60;;;;;;5092851;28;20231;-81
2023/08/16 19:59:58;;;;;;;13.18;8.65;;;27.30;98.90;;;;;;5091862;28;20712;-82
2023/08/16 20:02:38;;;;;;;13.82;8.93;;;27.30;99.90;;;;;;5073655;28;20225;-82
2023/08/16 20:05:16;;;;;;;13.48;9.20;;;27.20;99.10;;;;;;5091500;28;20201;-80
2023/08/16 20:07:58;;;;;;;12.93;9.45;;;27.20;99.10;;;;;;5074217;28;20220;-82
2023/08/16 20:10:37;;;;;;;13.77;9.32;;;27.20;99.90;;;;;;5092093;28;20196;-82
2023/08/16 20:13:09;;;;;;;27.60;10.82;;;27.10;99.90;;;;;;5073928;28;20197;-81
2023/08/16 20:15:39;;;;;;;13.95;9.23;;;27.10;99.90;;;;;;5073975;28;20223;-79
2023/08/16 20:18:07;;;;;;;11.98;9.50;;;27.00;99.90;;;;;;5091693;28;20193;-81
2023/08/16 20:20:37;;;;;;;13.82;9.52;;;27.00;99.90;;;;;;5073413;28;20197;-80
2023/08/16 20:23:08;;;;;;;15.45;9.52;;;27.00;99.90;;;;;;5092125;28;20202;-81
2023/08/16 20:25:51;;;;;;;12.63;9.65;;;27.00;99.90;;;;;;5074206;28;20633;-80
2023/08/16 20:28:31;;;;;;;16.00;9.98;;;26.90;99.90;;;;;;5073580;28;20205;-81
2023/08/16 20:30:59;;;;;;;13.70;9.95;;;26.90;99.90;;;;;;5073634;28;20567;-81
2023/08/16 20:33:31;;;;;;;15.43;10.15;;;26.90;99.90;;;;;;5338980;22;20200;-83
2023/08/16 20:35:59;;;;;;;13.98;10.65;;;26.80;99.90;;;;;;5072970;28;20462;-84
2023/08/16 20:38:26;;;;;;;13.75;10.23;;;26.80;99.90;;;;;;5072636;28;20684;-83
2023/08/16 20:40:55;;;;;;;17.13;10.30;;;26.90;99.90;;;;;;5055009;28;20210;-84
2023/08/16 20:43:22;;;;;;;15.98;10.45;;;26.90;99.90;;;;;;5038165;28;20602;-83
2023/08/16 20:45:49;;;;;;;16.60;10.60;;;26.90;99.90;;;;;;5054346;28;20700;-85
2023/08/16 20:48:21;;;;;;;14.68;11.05;;;26.90;99.90;;;;;;5069884;28;20210;-81
2023/08/16 20:51:30;;;;;;;16.63;10.63;;;26.90;99.90;;;;;;5053256;28;20229;-83
2023/08/16 20:54:04;;;;;;;22.15;11.57;;;26.90;99.90;;;;;;5053485;28;20202;-80
2023/08/16 20:57:04;;;;;;;13.20;10.52;;;26.90;99.90;;;;;;5218093;23;20246;-87
2023/08/16 20:59:46;;;;;;;19.73;10.95;;;26.90;99.90;;;;;;5048784;28;20214;-86
2023/08/16 21:02:19;;;;;;;12.98;10.85;;;26.80;99.90;;;;;;5033609;28;20222;-84
2023/08/16 21:04:47;;;;;;;14.88;11.07;;;26.80;99.90;;;;;;5050072;28;20252;-90
2023/08/16 21:07:14;;;;;;;14.32;10.98;;;26.80;99.90;;;;;;5051356;28;20242;-78
2023/08/16 21:09:41;;;;;;;16.23;11.05;;;26.80;99.90;;;;;;5053329;28;20203;-80
2023/08/16 21:12:41;;;;;;;;;;;;;;;;;;;;;
2023/08/16 21:15:46;;;;;;;15.50;10.48;;;26.70;99.90;;;;;;5067555;28;20651;-88
2023/08/16 21:18:24;;;;;;;16.08;11.05;;;26.60;99.90;;;;;;5040101;28;20275;-88
2023/08/16 21:21:02;;;;;;;13.32;10.00;;;26.70;99.90;;;;;;5055220;28;20179;-84
2023/08/16 21:23:50;;;;;;;18.65;11.55;;;26.60;99.90;;;;;;5038996;28;20191;-86
2023/08/16 21:26:28;;;;;;;18.13;10.98;;;26.60;99.90;;;;;;5054284;28;20190;-87
2023/08/16 21:29:41;;;;;;;16.88;11.55;;;26.60;99.90;;;;;;5053326;28;20191;-91
2023/08/16 21:32:27;;;;;;;14.98;11.05;;;26.50;99.90;;;;;;5055480;28;20651;-88
2023/08/16 21:35:06;;;;;;;15.65;11.48;;;26.40;99.90;;;;;;5053881;28;20289;-89
2023/08/16 21:38:02;;;;;;;16.30;10.60;;;26.40;99.90;;;;;;5052613;28;20234;-88
2023/08/16 21:40:54;;;;;;;;;;;;;;;;;;;;;
2023/08/16 21:44:07;;;;;;;16.88;11.75;;;26.40;99.90;;;;;;5008879;28;20622;-84
2023/08/16 21:52:09;;;;;;;15.57;11.32;;;26.40;99.90;;;;;;5097800;22;20231;-85
2023/08/16 21:54:39;;;;;;;16.00;11.20;;;26.40;99.90;;;;;;5034553;28;20208;-85
2023/08/16 22:02:09;;;;;;;15.75;11.27;;;26.40;99.90;;;;;;4954003;29;20250;-84
2023/08/16 22:05:19;;;;;;;18.45;11.65;;;26.20;99.90;;;;;;4922528;29;20237;-85
2023/08/16 22:09:15;;;;;;;13.95;11.43;;;26.20;99.90;;;;;;4803110;29;20211;-85
2023/08/16 22:12:34;;;;;;;16.42;11.48;;;26.10;99.90;;;;;;4859764;29;20676;-84
2023/08/16 22:15:09;;;;;;;15.38;11.90;;;26.00;99.90;;;;;;4880445;29;20336;-83
2023/08/16 22:17:44;;;;;;;21.58;11.80;;;26.00;99.90;;;;;;4880796;29;20307;-84
2023/08/16 22:20:14;;;;;;;16.30;11.38;;;26.00;99.90;;;;;;4881434;29;20227;-83
2023/08/16 22:22:43;;;;;;;17.67;11.48;;;25.90;99.90;;;;;;4881251;29;20244;-87
2023/08/16 22:25:12;;;;;;;18.17;12.30;;;25.90;99.90;;;;;;4881129;29;20702;-85
2023/08/16 22:27:39;;;;;;;18.63;12.88;;;25.80;99.90;;;;;;4881469;29;20303;-85
2023/08/16 22:30:07;;;;;;;19.98;12.63;;;25.80;99.90;;;;;;4882954;29;20200;-84
2023/08/16 22:32:34;;;;;;;18.73;12.80;;;25.70;99.90;;;;;;4899590;29;20199;-85
2023/08/16 22:35:02;;;;;;;17.23;12.70;;;25.70;99.90;;;;;;4916034;29;20207;-85
2023/08/16 22:37:29;;;;;;;24.30;13.02;;;25.60;99.90;;;;;;4909469;29;20223;-85
2023/08/16 22:39:57;;;;;;;19.70;12.93;;;25.60;99.90;;;;;;4937932;29;20201;-85
2023/08/16 22:42:25;;;;;;;16.52;12.63;;;25.70;99.90;;;;;;4953471;29;20682;-85
2023/08/16 22:44:52;;;;;;;16.02;12.45;;;25.60;99.90;;;;;;4937404;29;20206;-84
2023/08/16 22:47:19;;;;;;;17.90;12.85;;;25.60;99.90;;;;;;4937240;29;20706;-84
2023/08/16 22:49:46;;;;;;;15.23;12.05;;;25.50;99.90;;;;;;4951873;29;20327;-84
2023/08/16 22:52:19;;;;;;;14.45;12.45;;;25.50;99.90;;;;;;4933991;29;20218;-82
2023/08/16 22:54:46;;;;;;;19.80;12.43;;;25.50;99.90;;;;;;4918919;29;20203;-82
2023/08/16 22:57:14;;;;;;;17.80;12.40;;;25.40;99.90;;;;;;4918680;29;20298;-82
2023/08/16 22:59:51;;;;;;;18.08;12.52;;;25.40;99.90;;;;;;4934065;29;20641;-83
2023/08/16 23:02:29;;;;;;;18.73;12.32;;;25.40;99.90;;;;;;4919363;29;20265;-82
2023/08/16 23:05:11;;;;;;;17.98;13.10;;;25.60;99.90;;;;;;4933869;29;20195;-83
2023/08/16 23:08:10;;;;;;;16.70;12.43;;;25.60;99.90;;;;;;4908793;29;20738;-83
2023/08/16 23:10:54;;;;;;;16.73;13.05;;;25.50;99.90;;;;;;4933671;29;20207;-83
2023/08/16 23:13:25;;;;;;;18.38;12.73;;;25.50;99.90;;;;;;4933643;29;20238;-83
2023/08/16 23:16:31;;;;;;;16.08;12.48;;;25.60;99.90;;;;;;4933254;29;20706;-84
2023/08/16 23:22:45;;;;;;;29.00;14.18;;;25.50;99.90;;;;;;4932782;29;20257;-84
2023/08/16 23:25:59;;;;;;;19.52;13.32;;;25.50;99.90;;;;;;4901932;29;20302;-84
2023/08/16 23:29:00;;;;;;;17.02;12.13;;;25.50;99.90;;;;;;4912106;29;20729;-85
2023/08/16 23:31:32;;;;;;;18.95;12.80;;;25.40;99.90;;;;;;4917837;29;20202;-84
2023/08/16 23:34:00;;;;;;;21.00;12.70;;;25.20;99.90;;;;;;4934332;29;20206;-85
2023/08/16 23:36:30;;;;;;;17.17;12.32;;;25.20;99.90;;;;;;4902480;29;20205;-85
2023/08/16 23:39:03;;;;;;;17.63;12.85;;;25.20;99.90;;;;;;4935279;29;20191;-90
2023/08/16 23:42:15;;;;;;;15.15;12.43;;;25.20;99.90;;;;;;4935843;29;20207;-90
2023/08/16 23:57:00;;;;;;;15.80;12.85;;;24.80;99.90;;;;;;4800658;29;20188;-92
2023/08/16 23:59:57;;;;;;;15.68;12.70;;;24.80;99.90;;;;;;4791641;29;20294;-92
